sensor_id;sensor_type;location;lat;lon;timestamp;pressure;altitude;pressure_sealevel;temperature;humidity
69060;BME280;56135;37.534;-122.308;2023-02-04T00:00:16;102207.03;;;13.31;100.00
69060;BME280;56135;37.534;-122.308;2023-02-04T00:02:43;102204.38;;;13.31;100.00
69060;BME280;56135;37.534;-122.308;2023-02-04T00:05:10;102201.75;;;13.30;100.00
69060;BME280;56135;37.534;-122.308;2023-02-04T00:07:37;102207.03;;;13.31;100.00
69060;BME280;56135;37.534;-122.308;2023-02-04T00:10:05;102200.88;;;13.31;100.00
69060;BME280;56135;37.534;-122.308;2023-02-04T00:12:32;102204.38;;;13.31;100.00
69060;BME280;56135;37.534;-122.308;2023-02-04T00:14:59;102199.09;;;13.31;100.00
69060;BME280;56135;37.534;-122.308;2023-02-04T00:17:25;102202.63;;;13.32;100.00
69060;BME280;56135;37.534;-122.308;2023-02-04T00:19:51;102209.72;;;13.33;100.00
69060;BME280;56135;37.534;-122.308;2023-02-04T00:22:18;102192.91;;;13.32;100.00
69060;BME280;56135;37.534;-122.308;2023-02-04T00:24:45;102192.91;;;13.32;100.00
69060;BME280;56135;37.534;-122.308;2023-02-04T00:27:14;102195.56;;;13.32;100.00
69060;BME280;56135;37.534;-122.308;2023-02-04T00:29:41;102199.09;;;13.31;100.00
69060;BME280;56135;37.534;-122.308;2023-02-04T00:32:07;102199.09;;;13.31;100.00
69060;BME280;56135;37.534;-122.308;2023-02-04T00:34:33;102197.34;;;13.32;100.00
69060;BME280;56135;37.534;-122.308;2023-02-04T00:37:00;102192.91;;;13.31;100.00
69060;BME280;56135;37.534;-122.308;2023-02-04T00:39:26;102194.69;;;13.30;100.00
69060;BME280;56135;37.534;-122.308;2023-02-04T00:41:52;102192.91;;;13.29;100.00
69060;BME280;56135;37.534;-122.308;2023-02-04T00:44:18;102195.56;;;13.29;100.00
69060;BME280;56135;37.534;-122.308;2023-02-04T00:46:44;102195.56;;;13.29;100.00
69060;BME280;56135;37.534;-122.308;2023-02-04T00:49:13;102188.47;;;13.28;100.00
69060;BME280;56135;37.534;-122.308;2023-02-04T00:51:40;102192.03;;;13.30;100.00
69060;BME280;56135;37.534;-122.308;2023-02-04T00:54:11;102187.59;;;13.29;100.00
69060;BME280;56135;37.534;-122.308;2023-02-04T00:56:38;102186.72;;;13.30;100.00
69060;BME280;56135;37.534;-122.308;2023-02-04T00:59:04;102189.34;;;13.29;100.00
69060;BME280;56135;37.534;-122.308;2023-02-04T01:01:30;102184.94;;;13.29;100.00
69060;BME280;56135;37.534;-122.308;2023-02-04T01:03:57;102199.09;;;13.00;100.00
69060;BME280;56135;37.534;-122.308;2023-02-04T01:06:23;102187.56;;;12.69;100.00
69060;BME280;56135;37.534;-122.308;2023-02-04T01:08:49;102188.47;;;12.80;100.00
69060;BME280;56135;37.534;-122.308;2023-02-04T01:11:16;102197.31;;;12.90;100.00
69060;BME280;56135;37.534;-122.308;2023-02-04T01:13:43;102195.56;;;12.95;100.00
69060;BME280;56135;37.534;-122.308;2023-02-04T01:16:09;102196.44;;;13.00;100.00
69060;BME280;56135;37.534;-122.308;2023-02-04T01:18:35;102192.91;;;13.05;100.00
69060;BME280;56135;37.534;-122.308;2023-02-04T01:21:02;102200.00;;;13.07;100.00
69060;BME280;56135;37.534;-122.308;2023-02-04T01:23:28;102204.41;;;13.10;100.00
69060;BME280;56135;37.534;-122.308;2023-02-04T01:25:54;102203.53;;;13.12;100.00
69060;BME280;56135;37.534;-122.308;2023-02-04T01:28:20;102204.41;;;13.13;100.00
69060;BME280;56135;37.534;-122.308;2023-02-04T01:30:47;102204.41;;;13.16;100.00
69060;BME280;56135;37.534;-122.308;2023-02-04T01:33:13;102201.75;;;13.17;100.00
69060;BME280;56135;37.534;-122.308;2023-02-04T01:35:39;102206.19;;;13.18;100.00
69060;BME280;56135;37.534;-122.308;2023-02-04T01:38:05;102195.56;;;13.20;100.00
69060;BME280;56135;37.534;-122.308;2023-02-04T01:40:32;102209.69;;;13.22;100.00
69060;BME280;56135;37.534;-122.308;2023-02-04T01:42:58;102206.19;;;13.22;100.00
69060;BME280;56135;37.534;-122.308;2023-02-04T01:45:24;102203.53;;;13.23;100.00
69060;BME280;56135;37.534;-122.308;2023-02-04T01:47:51;102193.78;;;13.22;100.00
69060;BME280;56135;37.534;-122.308;2023-02-04T01:50:17;102190.25;;;13.23;100.00
69060;BME280;56135;37.534;-122.308;2023-02-04T01:52:44;102183.19;;;13.24;100.00
69060;BME280;56135;37.534;-122.308;2023-02-04T01:55:19;102192.03;;;13.24;100.00
69060;BME280;56135;37.534;-122.308;2023-02-04T01:57:46;102187.59;;;13.25;100.00
69060;BME280;56135;37.534;-122.308;2023-02-04T02:00:17;102184.06;;;13.26;100.00
69060;BME280;56135;37.534;-122.308;2023-02-04T02:02:47;102184.06;;;13.26;100.00
69060;BME280;56135;37.534;-122.308;2023-02-04T02:05:21;102184.97;;;13.26;100.00
69060;BME280;56135;37.534;-122.308;2023-02-04T02:07:49;102186.72;;;13.27;100.00
69060;BME280;56135;37.534;-122.308;2023-02-04T02:10:16;102190.25;;;13.28;100.00
69060;BME280;56135;37.534;-122.308;2023-02-04T02:12:44;102190.25;;;13.29;100.00
69060;BME280;56135;37.534;-122.308;2023-02-04T02:15:12;102190.25;;;13.28;100.00
69060;BME280;56135;37.534;-122.308;2023-02-04T02:17:39;102192.91;;;13.29;100.00
69060;BME280;56135;37.534;-122.308;2023-02-04T02:20:11;102191.13;;;13.28;100.00
69060;BME280;56135;37.534;-122.308;2023-02-04T02:25:27;102189.38;;;13.30;100.00
69060;BME280;56135;37.534;-122.308;2023-02-04T02:27:53;102197.31;;;13.29;100.00
69060;BME280;56135;37.534;-122.308;2023-02-04T02:30:20;102196.44;;;13.28;100.00
69060;BME280;56135;37.534;-122.308;2023-02-04T02:32:48;102192.00;;;13.29;100.00
69060;BME280;56135;37.534;-122.308;2023-02-04T02:35:16;102189.34;;;13.29;100.00
69060;BME280;56135;37.534;-122.308;2023-02-04T02:37:43;102185.81;;;13.28;100.00
69060;BME280;56135;37.534;-122.308;2023-02-04T02:40:10;102184.03;;;13.29;100.00
69060;BME280;56135;37.534;-122.308;2023-02-04T02:42:37;102174.34;;;13.29;100.00
69060;BME280;56135;37.534;-122.308;2023-02-04T02:45:09;102171.66;;;13.31;100.00
69060;BME280;56135;37.534;-122.308;2023-02-04T02:47:37;102170.81;;;13.30;100.00
69060;BME280;56135;37.534;-122.308;2023-02-04T02:50:04;102167.22;;;13.31;100.00
69060;BME280;56135;37.534;-122.308;2023-02-04T02:52:30;102172.53;;;13.31;100.00
69060;BME280;56135;37.534;-122.308;2023-02-04T02:54:56;102175.22;;;13.30;100.00
69060;BME280;56135;37.534;-122.308;2023-02-04T02:57:23;102176.09;;;13.30;100.00
69060;BME280;56135;37.534;-122.308;2023-02-04T02:59:49;102168.13;;;13.29;100.00
69060;BME280;56135;37.534;-122.308;2023-02-04T03:02:18;102163.72;;;13.29;100.00
69060;BME280;56135;37.534;-122.308;2023-02-04T03:04:54;102157.50;;;13.29;100.00
69060;BME280;56135;37.534;-122.308;2023-02-04T03:07:21;102173.47;;;13.30;100.00
69060;BME280;56135;37.534;-122.308;2023-02-04T03:09:48;102175.22;;;13.28;100.00
69060;BME280;56135;37.534;-122.308;2023-02-04T03:12:15;102182.28;;;13.31;100.00
69060;BME280;56135;37.534;-122.308;2023-02-04T03:14:42;102171.66;;;13.31;100.00
69060;BME280;56135;37.534;-122.308;2023-02-04T03:17:09;102173.44;;;13.32;100.00
69060;BME280;56135;37.534;-122.308;2023-02-04T03:19:36;102173.44;;;13.33;100.00
69060;BME280;56135;37.534;-122.308;2023-02-04T03:22:04;102169.91;;;13.33;100.00
69060;BME280;56135;37.534;-122.308;2023-02-04T03:24:31;102163.69;;;13.32;100.00
69060;BME280;56135;37.534;-122.308;2023-02-04T03:26:58;102164.59;;;13.33;100.00
69060;BME280;56135;37.534;-122.308;2023-02-04T03:29:24;102162.84;;;13.32;100.00
69060;BME280;56135;37.534;-122.308;2023-02-04T03:31:51;102153.97;;;13.31;100.00
69060;BME280;56135;37.534;-122.308;2023-02-04T03:34:21;102161.94;;;13.31;100.00
69060;BME280;56135;37.534;-122.308;2023-02-04T03:36:47;102151.31;;;13.31;100.00
69060;BME280;56135;37.534;-122.308;2023-02-04T03:39:15;102146.00;;;13.31;100.00
69060;BME280;56135;37.534;-122.308;2023-02-04T03:41:41;102145.13;;;13.31;100.00
69060;BME280;56135;37.534;-122.308;2023-02-04T03:44:07;102149.56;;;13.32;100.00
69060;BME280;56135;37.534;-122.308;2023-02-04T03:46:34;102146.00;;;13.31;100.00
69060;BME280;56135;37.534;-122.308;2023-02-04T03:49:03;102136.28;;;13.32;100.00
69060;BME280;56135;37.534;-122.308;2023-02-04T03:51:29;102146.91;;;13.32;100.00
69060;BME280;56135;37.534;-122.308;2023-02-04T03:53:55;102140.69;;;13.31;100.00
69060;BME280;56135;37.534;-122.308;2023-02-04T03:56:21;102153.97;;;13.31;100.00
69060;BME280;56135;37.534;-122.308;2023-02-04T03:58:48;102153.97;;;13.31;100.00
69060;BME280;56135;37.534;-122.308;2023-02-04T04:01:14;102155.75;;;13.32;100.00
69060;BME280;56135;37.534;-122.308;2023-02-04T04:03:40;102147.78;;;13.32;100.00
69060;BME280;56135;37.534;-122.308;2023-02-04T04:06:07;102153.09;;;13.32;100.00
69060;BME280;56135;37.534;-122.308;2023-02-04T04:08:35;102154.88;;;13.33;100.00
69060;BME280;56135;37.534;-122.308;2023-02-04T04:11:01;102161.94;;;13.33;100.00
69060;BME280;56135;37.534;-122.308;2023-02-04T04:13:27;102159.28;;;13.33;100.00
69060;BME280;56135;37.534;-122.308;2023-02-04T04:15:54;102156.63;;;13.34;100.00
69060;BME280;56135;37.534;-122.308;2023-02-04T04:18:20;102155.72;;;13.34;100.00
69060;BME280;56135;37.534;-122.308;2023-02-04T04:20:46;102159.28;;;13.34;100.00
69060;BME280;56135;37.534;-122.308;2023-02-04T04:23:12;102158.41;;;13.35;100.00
69060;BME280;56135;37.534;-122.308;2023-02-04T04:25:39;102155.75;;;13.35;100.00
69060;BME280;56135;37.534;-122.308;2023-02-04T04:28:05;102157.53;;;13.37;100.00
69060;BME280;56135;37.534;-122.308;2023-02-04T04:30:31;102164.59;;;13.34;100.00
69060;BME280;56135;37.534;-122.308;2023-02-04T04:32:57;102169.03;;;13.35;100.00
69060;BME280;56135;37.534;-122.308;2023-02-04T04:35:23;102159.28;;;13.34;100.00
69060;BME280;56135;37.534;-122.308;2023-02-04T04:37:50;102158.38;;;13.34;100.00
69060;BME280;56135;37.534;-122.308;2023-02-04T04:40:16;102169.91;;;13.34;100.00
69060;BME280;56135;37.534;-122.308;2023-02-04T04:42:42;102160.16;;;13.35;100.00
69060;BME280;56135;37.534;-122.308;2023-02-04T04:45:10;102158.41;;;13.35;100.00
69060;BME280;56135;37.534;-122.308;2023-02-04T04:47:36;102160.16;;;13.35;100.00
69060;BME280;56135;37.534;-122.308;2023-02-04T04:50:03;102155.75;;;13.35;100.00
69060;BME280;56135;37.534;-122.308;2023-02-04T04:52:29;102154.84;;;13.35;100.00
69060;BME280;56135;37.534;-122.308;2023-02-04T04:54:55;102156.63;;;13.34;100.00
69060;BME280;56135;37.534;-122.308;2023-02-04T04:57:22;102173.44;;;13.35;100.00
69060;BME280;56135;37.534;-122.308;2023-02-04T04:59:48;102161.94;;;13.34;100.00
69060;BME280;56135;37.534;-122.308;2023-02-04T05:02:14;102158.38;;;13.34;100.00
69060;BME280;56135;37.534;-122.308;2023-02-04T05:04:40;102161.94;;;13.34;100.00
69060;BME280;56135;37.534;-122.308;2023-02-04T05:07:06;102155.72;;;13.34;100.00
69060;BME280;56135;37.534;-122.308;2023-02-04T05:09:33;102164.63;;;13.36;100.00
69060;BME280;56135;37.534;-122.308;2023-02-04T05:11:59;102165.50;;;13.37;100.00
69060;BME280;56135;37.534;-122.308;2023-02-04T05:14:25;102165.50;;;13.37;100.00
69060;BME280;56135;37.534;-122.308;2023-02-04T05:16:51;102167.25;;;13.34;100.00
69060;BME280;56135;37.534;-122.308;2023-02-04T05:19:18;102164.59;;;13.34;100.00
69060;BME280;56135;37.534;-122.308;2023-02-04T05:21:44;102158.38;;;13.34;100.00
69060;BME280;56135;37.534;-122.308;2023-02-04T05:24:10;102167.25;;;13.34;100.00
69060;BME280;56135;37.534;-122.308;2023-02-04T05:26:36;102167.25;;;13.34;100.00
69060;BME280;56135;37.534;-122.308;2023-02-04T05:29:03;102169.03;;;13.35;100.00
69060;BME280;56135;37.534;-122.308;2023-02-04T05:31:29;102163.72;;;13.35;100.00
69060;BME280;56135;37.534;-122.308;2023-02-04T05:33:55;102171.69;;;13.35;100.00
69060;BME280;56135;37.534;-122.308;2023-02-04T05:36:22;102178.75;;;13.37;100.00
69060;BME280;56135;37.534;-122.308;2023-02-04T05:38:48;102175.25;;;13.36;100.00
69060;BME280;56135;37.534;-122.308;2023-02-04T05:41:14;102177.91;;;13.36;100.00
69060;BME280;56135;37.534;-122.308;2023-02-04T05:43:40;102170.78;;;13.35;100.00
69060;BME280;56135;37.534;-122.308;2023-02-04T05:46:07;102169.91;;;13.34;100.00
69060;BME280;56135;37.534;-122.308;2023-02-04T05:48:34;102166.34;;;13.34;100.00
69060;BME280;56135;37.534;-122.308;2023-02-04T05:51:00;102173.44;;;13.33;100.00
69060;BME280;56135;37.534;-122.308;2023-02-04T05:53:26;102166.34;;;13.34;100.00
69060;BME280;56135;37.534;-122.308;2023-02-04T05:55:52;102172.56;;;13.34;100.00
69060;BME280;56135;37.534;-122.308;2023-02-04T05:58:18;102174.34;;;13.35;100.00
69060;BME280;56135;37.534;-122.308;2023-02-04T06:00:45;102176.09;;;13.35;100.00
69060;BME280;56135;37.534;-122.308;2023-02-04T06:03:11;102172.56;;;13.34;100.00
69060;BME280;56135;37.534;-122.308;2023-02-04T06:05:39;102168.13;;;13.33;100.00
69060;BME280;56135;37.534;-122.308;2023-02-04T06:08:05;102171.66;;;13.34;100.00
69060;BME280;56135;37.534;-122.308;2023-02-04T06:10:32;102161.03;;;13.34;100.00
69060;BME280;56135;37.534;-122.308;2023-02-04T06:12:58;102151.34;;;13.33;100.00
69060;BME280;56135;37.534;-122.308;2023-02-04T06:15:24;102159.28;;;13.33;100.00
69060;BME280;56135;37.534;-122.308;2023-02-04T06:17:50;102153.09;;;13.32;100.00
69060;BME280;56135;37.534;-122.308;2023-02-04T06:20:18;102159.28;;;13.31;100.00
69060;BME280;56135;37.534;-122.308;2023-02-04T06:22:44;102153.09;;;13.32;100.00
69060;BME280;56135;37.534;-122.308;2023-02-04T06:25:10;102139.81;;;13.32;100.00
69060;BME280;56135;37.534;-122.308;2023-02-04T06:27:36;102144.25;;;13.33;100.00
69060;BME280;56135;37.534;-122.308;2023-02-04T06:30:03;102144.25;;;13.33;100.00
69060;BME280;56135;37.534;-122.308;2023-02-04T06:32:29;102140.69;;;13.31;100.00
69060;BME280;56135;37.534;-122.308;2023-02-04T06:34:55;102143.34;;;13.31;100.00
69060;BME280;56135;37.534;-122.308;2023-02-04T06:37:21;102138.94;;;13.29;100.00
69060;BME280;56135;37.534;-122.308;2023-02-04T06:39:47;102145.13;;;13.29;100.00
69060;BME280;56135;37.534;-122.308;2023-02-04T06:42:13;102142.47;;;13.29;100.00
69060;BME280;56135;37.534;-122.308;2023-02-04T06:44:40;102143.38;;;13.28;100.00
69060;BME280;56135;37.534;-122.308;2023-02-04T06:47:06;102147.81;;;13.28;100.00
69060;BME280;56135;37.534;-122.308;2023-02-04T06:49:32;102145.16;;;13.28;100.00
69060;BME280;56135;37.534;-122.308;2023-02-04T06:51:58;102146.88;;;13.29;100.00
69060;BME280;56135;37.534;-122.308;2023-02-04T06:54:25;102134.53;;;13.29;100.00
69060;BME280;56135;37.534;-122.308;2023-02-04T06:56:51;102133.66;;;13.30;100.00
69060;BME280;56135;37.534;-122.308;2023-02-04T06:59:17;102132.75;;;13.30;100.00
69060;BME280;56135;37.534;-122.308;2023-02-04T07:01:43;102138.94;;;13.29;100.00
69060;BME280;56135;37.534;-122.308;2023-02-04T07:04:09;102138.06;;;13.28;100.00
69060;BME280;56135;37.534;-122.308;2023-02-04T07:06:36;102145.13;;;13.29;100.00
69060;BME280;56135;37.534;-122.308;2023-02-04T07:09:02;102138.94;;;13.27;100.00
69060;BME280;56135;37.534;-122.308;2023-02-04T07:11:28;102136.28;;;13.27;100.00
69060;BME280;56135;37.534;-122.308;2023-02-04T07:13:54;102141.59;;;13.27;100.00
69060;BME280;56135;37.534;-122.308;2023-02-04T07:16:20;102142.50;;;13.26;100.00
69060;BME280;56135;37.534;-122.308;2023-02-04T07:18:47;102138.94;;;13.24;100.00
69060;BME280;56135;37.534;-122.308;2023-02-04T07:21:13;102138.06;;;13.25;100.00
69060;BME280;56135;37.534;-122.308;2023-02-04T07:23:39;102132.75;;;13.25;100.00
69060;BME280;56135;37.534;-122.308;2023-02-04T07:26:05;102138.94;;;13.26;100.00
69060;BME280;56135;37.534;-122.308;2023-02-04T07:28:31;102136.28;;;13.26;100.00
69060;BME280;56135;37.534;-122.308;2023-02-04T07:30:58;102141.59;;;13.24;100.00
69060;BME280;56135;37.534;-122.308;2023-02-04T07:33:24;102138.94;;;13.24;100.00
69060;BME280;56135;37.534;-122.308;2023-02-04T07:35:50;102138.94;;;13.24;100.00
69060;BME280;56135;37.534;-122.308;2023-02-04T07:38:16;102136.28;;;13.24;100.00
69060;BME280;56135;37.534;-122.308;2023-02-04T07:40:43;102131.88;;;13.23;100.00
69060;BME280;56135;37.534;-122.308;2023-02-04T07:43:09;102139.84;;;13.23;100.00
69060;BME280;56135;37.534;-122.308;2023-02-04T07:45:35;102145.16;;;13.22;100.00
69060;BME280;56135;37.534;-122.308;2023-02-04T07:48:01;102139.84;;;13.20;100.00
69060;BME280;56135;37.534;-122.308;2023-02-04T07:50:27;102136.31;;;13.21;100.00
69060;BME280;56135;37.534;-122.308;2023-02-04T07:52:54;102139.84;;;13.22;100.00
69060;BME280;56135;37.534;-122.308;2023-02-04T07:55:20;102135.41;;;13.22;100.00
69060;BME280;56135;37.534;-122.308;2023-02-04T07:57:46;102146.91;;;13.23;100.00
69060;BME280;56135;37.534;-122.308;2023-02-04T08:00:13;102137.19;;;13.22;100.00
69060;BME280;56135;37.534;-122.308;2023-02-04T08:02:40;102128.34;;;13.21;100.00
69060;BME280;56135;37.534;-122.308;2023-02-04T08:05:07;102123.94;;;13.20;100.00
69060;BME280;56135;37.534;-122.308;2023-02-04T08:07:34;102131.88;;;13.20;100.00
69060;BME280;56135;37.534;-122.308;2023-02-04T08:10:01;102126.59;;;13.20;100.00
69060;BME280;56135;37.534;-122.308;2023-02-04T08:12:27;102114.19;;;13.21;100.00
69060;BME280;56135;37.534;-122.308;2023-02-04T08:14:53;102113.31;;;13.20;100.00
69060;BME280;56135;37.534;-122.308;2023-02-04T08:17:19;102106.22;;;13.19;100.00
69060;BME280;56135;37.534;-122.308;2023-02-04T08:19:46;102106.22;;;13.19;100.00
69060;BME280;56135;37.534;-122.308;2023-02-04T08:22:12;102103.56;;;13.19;100.00
69060;BME280;56135;37.534;-122.308;2023-02-04T08:24:38;102106.22;;;13.19;100.00
69060;BME280;56135;37.534;-122.308;2023-02-04T08:27:04;102105.34;;;13.20;100.00
69060;BME280;56135;37.534;-122.308;2023-02-04T08:29:31;102097.41;;;13.18;100.00
69060;BME280;56135;37.534;-122.308;2023-02-04T08:31:57;102099.19;;;13.20;100.00
69060;BME280;56135;37.534;-122.308;2023-02-04T08:34:23;102088.56;;;13.20;100.00
69060;BME280;56135;37.534;-122.308;2023-02-04T08:36:49;102087.66;;;13.19;100.00
69060;BME280;56135;37.534;-122.308;2023-02-04T08:39:15;102092.09;;;13.18;100.00
69060;BME280;56135;37.534;-122.308;2023-02-04T08:41:42;102092.97;;;13.19;100.00
69060;BME280;56135;37.534;-122.308;2023-02-04T08:44:08;102085.88;;;13.18;100.00
69060;BME280;56135;37.534;-122.308;2023-02-04T08:46:34;102095.63;;;13.19;100.00
69060;BME280;56135;37.534;-122.308;2023-02-04T08:49:00;102093.84;;;13.18;100.00
69060;BME280;56135;37.534;-122.308;2023-02-04T08:51:27;102099.16;;;13.18;100.00
69060;BME280;56135;37.534;-122.308;2023-02-04T08:53:53;102105.34;;;13.18;100.00
69060;BME280;56135;37.534;-122.308;2023-02-04T08:56:19;102103.56;;;13.19;100.00
69060;BME280;56135;37.534;-122.308;2023-02-04T08:58:45;102105.34;;;13.20;100.00
69060;BME280;56135;37.534;-122.308;2023-02-04T09:01:15;102092.97;;;13.19;100.00
69060;BME280;56135;37.534;-122.308;2023-02-04T09:03:41;102095.63;;;13.19;100.00
69060;BME280;56135;37.534;-122.308;2023-02-04T09:06:08;102099.19;;;13.20;100.00
69060;BME280;56135;37.534;-122.308;2023-02-04T09:08:34;102092.97;;;13.19;100.00
69060;BME280;56135;37.534;-122.308;2023-02-04T09:11:00;102098.28;;;13.19;100.00
69060;BME280;56135;37.534;-122.308;2023-02-04T09:13:27;102097.41;;;13.18;100.00
69060;BME280;56135;37.534;-122.308;2023-02-04T09:15:53;102092.97;;;13.19;100.00
69060;BME280;56135;37.534;-122.308;2023-02-04T09:18:20;102092.09;;;13.18;100.00
69060;BME280;56135;37.534;-122.308;2023-02-04T09:20:48;102085.88;;;13.18;100.00
69060;BME280;56135;37.534;-122.308;2023-02-04T09:23:15;102085.88;;;13.18;100.00
69060;BME280;56135;37.534;-122.308;2023-02-04T09:25:43;102075.28;;;13.18;100.00
69060;BME280;56135;37.534;-122.308;2023-02-04T09:28:10;102071.75;;;13.19;100.00
69060;BME280;56135;37.534;-122.308;2023-02-04T09:30:41;102070.00;;;13.20;100.00
69060;BME280;56135;37.534;-122.308;2023-02-04T09:33:09;102088.56;;;13.21;100.00
69060;BME280;56135;37.534;-122.308;2023-02-04T09:35:35;102085.91;;;13.20;100.00
69060;BME280;56135;37.534;-122.308;2023-02-04T09:38:02;102079.69;;;13.19;100.00
69060;BME280;56135;37.534;-122.308;2023-02-04T09:40:30;102073.53;;;13.18;100.00
69060;BME280;56135;37.534;-122.308;2023-02-04T09:42:59;102076.19;;;13.17;100.00
69060;BME280;56135;37.534;-122.308;2023-02-04T09:45:32;102069.97;;;13.18;100.00
69060;BME280;56135;37.534;-122.308;2023-02-04T09:48:02;102077.91;;;13.18;100.00
69060;BME280;56135;37.534;-122.308;2023-02-04T09:50:29;102072.63;;;13.18;100.00
69060;BME280;56135;37.534;-122.308;2023-02-04T09:53:02;102073.53;;;13.17;100.00
69060;BME280;56135;37.534;-122.308;2023-02-04T09:55:35;102065.56;;;13.17;100.00
69060;BME280;56135;37.534;-122.308;2023-02-04T09:58:04;102069.09;;;13.17;100.00
69060;BME280;56135;37.534;-122.308;2023-02-04T10:00:30;102080.56;;;13.18;100.00
69060;BME280;56135;37.534;-122.308;2023-02-04T10:02:59;102070.88;;;13.18;100.00
69060;BME280;56135;37.534;-122.308;2023-02-04T10:05:30;102069.97;;;13.18;100.00
69060;BME280;56135;37.534;-122.308;2023-02-04T10:07:57;102060.25;;;13.18;100.00
69060;BME280;56135;37.534;-122.308;2023-02-04T10:10:25;102054.94;;;13.18;100.00
69060;BME280;56135;37.534;-122.308;2023-02-04T10:12:56;102054.94;;;13.18;100.00
69060;BME280;56135;37.534;-122.308;2023-02-04T10:15:24;102056.69;;;13.18;100.00
69060;BME280;56135;37.534;-122.308;2023-02-04T10:17:54;102054.03;;;13.18;100.00
69060;BME280;56135;37.534;-122.308;2023-02-04T10:20:22;102055.81;;;13.17;100.00
69060;BME280;56135;37.534;-122.308;2023-02-04T10:22:52;102047.88;;;13.17;100.00
69060;BME280;56135;37.534;-122.308;2023-02-04T10:25:21;102047.00;;;13.17;100.00
69060;BME280;56135;37.534;-122.308;2023-02-04T10:27:55;102052.31;;;13.17;100.00
69060;BME280;56135;37.534;-122.308;2023-02-04T10:30:22;102049.63;;;13.15;100.00
69060;BME280;56135;37.534;-122.308;2023-02-04T10:32:50;102041.69;;;13.17;100.00
69060;BME280;56135;37.534;-122.308;2023-02-04T10:35:18;102042.56;;;13.17;100.00
69060;BME280;56135;37.534;-122.308;2023-02-04T10:37:45;102039.03;;;13.18;100.00
69060;BME280;56135;37.534;-122.308;2023-02-04T10:40:30;102038.13;;;13.18;100.00
69060;BME280;56135;37.534;-122.308;2023-02-04T10:42:56;102046.09;;;13.18;100.00
69060;BME280;56135;37.534;-122.308;2023-02-04T10:45:28;102043.44;;;13.18;100.00
69060;BME280;56135;37.534;-122.308;2023-02-04T10:47:56;102049.66;;;13.17;100.00
69060;BME280;56135;37.534;-122.308;2023-02-04T10:50:26;102055.84;;;13.16;100.00
69060;BME280;56135;37.534;-122.308;2023-02-04T10:52:57;102048.75;;;13.16;100.00
69060;BME280;56135;37.534;-122.308;2023-02-04T10:55:46;102056.69;;;13.16;100.00
69060;BME280;56135;37.534;-122.308;2023-02-04T10:58:19;102052.31;;;13.17;100.00
69060;BME280;56135;37.534;-122.308;2023-02-04T11:00:48;102045.22;;;13.16;100.00
69060;BME280;56135;37.534;-122.308;2023-02-04T11:03:26;102048.75;;;13.15;100.00
69060;BME280;56135;37.534;-122.308;2023-02-04T11:05:56;102049.63;;;13.15;100.00
69060;BME280;56135;37.534;-122.308;2023-02-04T11:13:24;102045.22;;;13.16;100.00
69060;BME280;56135;37.534;-122.308;2023-02-04T11:16:25;102047.00;;;13.17;100.00
69060;BME280;56135;37.534;-122.308;2023-02-04T11:18:53;102041.69;;;13.17;100.00
69060;BME280;56135;37.534;-122.308;2023-02-04T11:39:48;102008.97;;;13.13;100.00
69060;BME280;56135;37.534;-122.308;2023-02-04T11:42:25;102015.16;;;13.14;100.00
69060;BME280;56135;37.534;-122.308;2023-02-04T11:44:59;102017.78;;;13.15;100.00
69060;BME280;56135;37.534;-122.308;2023-02-04T11:47:32;102012.47;;;13.15;100.00
69060;BME280;56135;37.534;-122.308;2023-02-04T11:50:02;102008.94;;;13.15;100.00
69060;BME280;56135;37.534;-122.308;2023-02-04T11:52:29;102014.28;;;13.13;100.00
69060;BME280;56135;37.534;-122.308;2023-02-04T11:54:58;102008.97;;;13.13;100.00
69060;BME280;56135;37.534;-122.308;2023-02-04T11:57:25;102015.16;;;13.14;100.00
69060;BME280;56135;37.534;-122.308;2023-02-04T11:59:52;102008.97;;;13.13;100.00
69060;BME280;56135;37.534;-122.308;2023-02-04T12:02:22;102007.19;;;13.12;100.00
69060;BME280;56135;37.534;-122.308;2023-02-04T12:05:08;102004.53;;;13.12;100.00
69060;BME280;56135;37.534;-122.308;2023-02-04T12:07:34;102010.72;;;13.13;100.00
69060;BME280;56135;37.534;-122.308;2023-02-04T12:10:32;102000.09;;;13.13;100.00
69060;BME280;56135;37.534;-122.308;2023-02-04T12:12:58;101995.72;;;13.12;100.00
69060;BME280;56135;37.534;-122.308;2023-02-04T12:15:31;101995.72;;;13.12;100.00
69060;BME280;56135;37.534;-122.308;2023-02-04T12:18:03;102002.75;;;13.13;100.00
69060;BME280;56135;37.534;-122.308;2023-02-04T12:20:32;101997.44;;;13.13;100.00
69060;BME280;56135;37.534;-122.308;2023-02-04T12:22:59;102001.00;;;13.13;100.00
69060;BME280;56135;37.534;-122.308;2023-02-04T12:25:25;102003.66;;;13.13;100.00
69060;BME280;56135;37.534;-122.308;2023-02-04T12:27:52;102009.84;;;13.12;100.00
69060;BME280;56135;37.534;-122.308;2023-02-04T12:30:21;102005.41;;;13.11;100.00
69060;BME280;56135;37.534;-122.308;2023-02-04T12:32:48;101998.38;;;13.12;100.00
69060;BME280;56135;37.534;-122.308;2023-02-04T12:35:14;101994.81;;;13.10;100.00
69060;BME280;56135;37.534;-122.308;2023-02-04T12:37:41;101997.47;;;13.10;100.00